createdAt,value
2023-05-13T00:00:02.994Z,12.88
2023-05-13T00:01:06.738Z,12.86
2023-05-13T00:02:08.966Z,12.85
2023-05-13T00:03:11.273Z,12.86
2023-05-13T00:04:13.437Z,12.82
2023-05-13T00:05:15.786Z,12.77
2023-05-13T00:06:19.023Z,12.76
2023-05-13T00:07:21.473Z,12.72
2023-05-13T00:08:23.691Z,12.63
2023-05-13T00:09:26.134Z,12.65
2023-05-13T00:10:28.591Z,12.62
2023-05-13T00:11:30.906Z,12.63
2023-05-13T00:12:33.145Z,12.59
2023-05-13T00:13:35.475Z,12.58
2023-05-13T00:14:37.551Z,12.59
2023-05-13T00:15:40.173Z,12.53
2023-05-13T00:16:42.781Z,12.49
2023-05-13T00:17:45.674Z,12.51
2023-05-13T00:18:47.803Z,12.50
2023-05-13T00:19:50.044Z,12.46
2023-05-13T00:20:53.546Z,12.51
2023-05-13T00:21:55.753Z,12.42
2023-05-13T00:22:58.028Z,12.44
2023-05-13T00:24:00.653Z,12.46
2023-05-13T00:25:03.941Z,12.44
2023-05-13T00:26:06.327Z,12.43
2023-05-13T00:27:09.583Z,12.35
2023-05-13T00:28:13.827Z,12.26
2023-05-13T00:29:15.998Z,12.26
2023-05-13T00:30:18.418Z,12.24
2023-05-13T00:31:22.448Z,12.25
2023-05-13T00:32:25.044Z,12.27
2023-05-13T00:33:28.164Z,12.25
2023-05-13T00:34:30.277Z,12.26
2023-05-13T00:35:32.175Z,12.27
2023-05-13T00:36:34.562Z,12.25
2023-05-13T00:37:37.199Z,12.21
2023-05-13T00:38:39.407Z,12.19
2023-05-13T00:39:41.704Z,12.08
2023-05-13T00:40:44.388Z,12.07
2023-05-13T00:41:47.031Z,12.05
2023-05-13T00:42:50.053Z,12.01
2023-05-13T00:43:58.609Z,12.02
2023-05-13T00:45:00.654Z,12.06
2023-05-13T00:46:03.069Z,12.06
2023-05-13T00:47:06.185Z,12.04
2023-05-13T00:48:08.738Z,12.04
2023-05-13T00:49:11.155Z,12.03
2023-05-13T00:50:14.517Z,12.01
2023-05-13T00:51:17.177Z,12.01
2023-05-13T00:52:19.737Z,11.93
2023-05-13T00:53:22.139Z,11.93
2023-05-13T00:54:24.657Z,11.94
2023-05-13T00:55:26.741Z,11.96
2023-05-13T00:56:29.897Z,11.97
2023-05-13T00:57:32.752Z,11.94
2023-05-13T00:58:35.008Z,11.90
2023-05-13T00:59:37.028Z,11.84
2023-05-13T01:00:42.942Z,11.83
2023-05-13T01:01:48.746Z,11.79
2023-05-13T01:02:54.804Z,11.74
2023-05-13T01:04:16.794Z,11.74
2023-05-13T01:06:48.817Z,11.88
2023-05-13T01:08:06.835Z,11.77
2023-05-13T01:09:20.051Z,11.75
2023-05-13T01:10:37.677Z,11.77
2023-05-13T01:11:42.129Z,11.77
2023-05-13T01:12:46.175Z,11.78
2023-05-13T01:13:51.015Z,11.78
2023-05-13T01:15:13.186Z,11.79
2023-05-13T01:16:22.561Z,11.76
2023-05-13T01:17:28.783Z,11.78
2023-05-13T01:18:40.850Z,11.80
2023-05-13T01:19:49.792Z,11.81
2023-05-13T01:20:52.652Z,11.82
2023-05-13T01:21:55.152Z,11.73
2023-05-13T01:22:58.570Z,11.73
2023-05-13T01:24:01.778Z,11.70
2023-05-13T01:25:04.272Z,11.73
2023-05-13T01:26:07.464Z,11.66
2023-05-13T01:27:12.096Z,11.69
2023-05-13T01:28:15.501Z,11.71
2023-05-13T01:29:18.967Z,11.76
2023-05-13T01:30:23.229Z,11.83
2023-05-13T01:31:27.636Z,11.83
2023-05-13T01:32:30.420Z,11.86
2023-05-13T01:33:33.231Z,11.86
2023-05-13T01:34:38.073Z,11.91
2023-05-13T01:35:40.753Z,11.85
2023-05-13T01:36:43.818Z,11.86
2023-05-13T01:37:51.727Z,11.86
2023-05-13T01:38:55.773Z,11.85
2023-05-13T01:39:58.023Z,11.87
2023-05-13T01:41:00.342Z,11.88
2023-05-13T01:42:03.641Z,11.91
2023-05-13T01:43:06.894Z,11.92
2023-05-13T01:44:11.392Z,11.91
2023-05-13T01:45:14.393Z,11.88
2023-05-13T01:46:16.707Z,11.88
2023-05-13T01:47:19.139Z,11.88
2023-05-13T01:48:23.495Z,11.89
2023-05-13T01:49:25.584Z,11.89
2023-05-13T01:50:27.997Z,11.88
2023-05-13T01:51:32.094Z,11.85
2023-05-13T01:52:34.563Z,11.89
2023-05-13T01:53:36.910Z,11.88
2023-05-13T01:54:39.253Z,11.88
2023-05-13T01:55:43.424Z,11.88
2023-05-13T01:56:46.327Z,11.88
2023-05-13T01:57:48.603Z,11.88
2023-05-13T01:58:50.711Z,11.81
2023-05-13T01:59:52.973Z,11.81
2023-05-13T02:00:55.688Z,11.80
2023-05-13T02:01:57.821Z,11.81
2023-05-13T02:03:02.848Z,11.84
2023-05-13T02:04:05.108Z,11.81
2023-05-13T02:05:08.307Z,11.82
2023-05-13T02:06:10.873Z,11.82
2023-05-13T02:07:15.644Z,11.78
2023-05-13T02:08:22.653Z,11.79
2023-05-13T02:09:24.808Z,11.80
2023-05-13T02:10:28.306Z,11.80
2023-05-13T02:11:32.668Z,11.82
2023-05-13T02:12:35.579Z,11.85
2023-05-13T02:13:39.454Z,11.86
2023-05-13T02:14:41.889Z,11.88
2023-05-13T02:15:44.116Z,11.88
2023-05-13T02:16:46.506Z,11.86
2023-05-13T02:17:48.841Z,11.88
2023-05-13T02:18:51.189Z,11.86
2023-05-13T02:19:53.427Z,11.86
2023-05-13T02:20:56.854Z,11.87
2023-05-13T02:21:59.341Z,11.89
2023-05-13T02:23:01.673Z,11.89
2023-05-13T02:24:04.953Z,11.90
2023-05-13T02:25:08.040Z,11.86
2023-05-13T02:26:12.779Z,11.87
2023-05-13T02:27:15.917Z,11.81
2023-05-13T02:28:18.546Z,11.77
2023-05-13T02:29:21.507Z,11.76
2023-05-13T02:30:26.009Z,11.73
2023-05-13T02:31:28.216Z,11.69
2023-05-13T02:32:30.721Z,11.67
2023-05-13T02:33:33.131Z,11.66
2023-05-13T02:34:35.360Z,11.69
2023-05-13T02:35:38.703Z,11.70
2023-05-13T02:36:41.747Z,11.69
2023-05-13T02:37:45.883Z,11.68
2023-05-13T02:38:47.851Z,11.70
2023-05-13T02:39:50.451Z,11.70
2023-05-13T02:40:53.517Z,11.70
2023-05-13T02:41:56.829Z,11.71
2023-05-13T02:42:59.870Z,11.71
2023-05-13T02:44:05.199Z,11.72
2023-05-13T02:45:09.271Z,11.72
2023-05-13T02:46:12.625Z,11.68
2023-05-13T02:47:15.569Z,11.70
2023-05-13T02:48:18.138Z,11.67
2023-05-13T02:49:20.551Z,11.64
2023-05-13T02:50:24.469Z,11.66
2023-05-13T02:51:27.740Z,11.66
2023-05-13T02:52:29.610Z,11.67
2023-05-13T02:53:31.672Z,11.65
2023-05-13T02:54:35.612Z,11.60
2023-05-13T02:55:37.887Z,11.57
2023-05-13T02:56:40.173Z,11.55
2023-05-13T02:57:43.311Z,11.58
2023-05-13T02:58:45.693Z,11.55
2023-05-13T02:59:48.100Z,11.44
2023-05-13T03:00:51.349Z,11.44
2023-05-13T03:01:53.881Z,11.42
2023-05-13T03:02:56.954Z,11.35
2023-05-13T03:03:59.478Z,11.37
2023-05-13T03:05:01.700Z,11.42
2023-05-13T03:06:05.222Z,11.35
2023-05-13T03:07:07.641Z,11.39
2023-05-13T03:08:09.973Z,11.41
2023-05-13T03:09:13.337Z,11.45
2023-05-13T03:10:16.805Z,11.49
2023-05-13T03:11:21.066Z,11.51
2023-05-13T03:12:23.371Z,11.53
2023-05-13T03:13:26.621Z,11.54
2023-05-13T03:14:28.757Z,11.57
2023-05-13T03:15:31.180Z,11.55
2023-05-13T03:16:34.696Z,11.55
2023-05-13T03:17:37.062Z,11.54
2023-05-13T03:18:39.384Z,11.46
2023-05-13T03:19:41.550Z,11.41
2023-05-13T03:20:44.240Z,11.45
2023-05-13T03:21:46.559Z,11.43
2023-05-13T03:22:49.633Z,11.44
2023-05-13T03:23:51.952Z,11.43
2023-05-13T03:24:56.138Z,11.44
2023-05-13T03:26:01.297Z,11.44
2023-05-13T03:27:04.034Z,11.38
2023-05-13T03:28:08.535Z,11.42
2023-05-13T03:29:12.928Z,11.48
2023-05-13T03:30:15.505Z,11.49
2023-05-13T03:31:20.761Z,11.53
2023-05-13T03:32:24.894Z,11.53
2023-05-13T03:33:29.246Z,11.53
2023-05-13T03:34:32.735Z,11.56
2023-05-13T03:35:35.211Z,11.56
2023-05-13T03:36:38.804Z,11.52
2023-05-13T03:37:42.691Z,11.52
2023-05-13T03:38:45.493Z,11.56
2023-05-13T03:39:48.654Z,11.60
2023-05-13T03:40:51.133Z,11.66
2023-05-13T03:41:53.568Z,11.73
2023-05-13T03:42:55.983Z,11.75
2023-05-13T03:43:59.059Z,11.80
2023-05-13T03:45:01.874Z,11.85
2023-05-13T03:46:04.598Z,11.90
2023-05-13T03:47:07.197Z,11.90
2023-05-13T03:48:09.662Z,11.92
2023-05-13T03:49:11.892Z,11.96
2023-05-13T03:50:15.417Z,12.00
2023-05-13T03:51:20.338Z,12.04
2023-05-13T03:52:22.747Z,12.07
2023-05-13T03:53:25.145Z,12.08
2023-05-13T03:54:28.629Z,12.11
2023-05-13T03:55:31.014Z,12.13
2023-05-13T03:56:33.541Z,12.16
2023-05-13T03:57:36.732Z,12.11
2023-05-13T03:58:39.518Z,12.07
2023-05-13T03:59:42.759Z,12.07
2023-05-13T04:00:46.735Z,12.08
2023-05-13T04:01:49.768Z,12.11
2023-05-13T04:02:52.124Z,12.15
2023-05-13T04:03:54.461Z,12.17
2023-05-13T04:04:56.547Z,12.21
2023-05-13T04:05:58.692Z,12.23
2023-05-13T04:07:00.928Z,12.26
2023-05-13T04:08:03.356Z,12.29
2023-05-13T04:09:05.760Z,12.32
2023-05-13T04:10:12.985Z,12.35
2023-05-13T04:11:14.769Z,12.37
2023-05-13T04:12:17.607Z,12.39
2023-05-13T04:13:20.665Z,12.38
2023-05-13T04:14:22.775Z,12.40
2023-05-13T04:15:25.088Z,12.39
2023-05-13T04:16:27.439Z,12.42
2023-05-13T04:17:29.515Z,12.47
2023-05-13T04:18:34.614Z,12.51
2023-05-13T04:19:37.616Z,12.55
2023-05-13T04:20:40.937Z,12.56
2023-05-13T04:21:43.086Z,12.50
2023-05-13T04:22:45.416Z,12.55
2023-05-13T04:23:49.562Z,12.59
2023-05-13T04:24:53.939Z,12.62
2023-05-13T04:25:57.458Z,12.67
2023-05-13T04:27:01.468Z,12.69
2023-05-13T04:28:05.067Z,12.69
2023-05-13T04:29:09.242Z,12.75
2023-05-13T04:30:13.216Z,12.79
2023-05-13T04:31:17.323Z,12.81
2023-05-13T04:32:21.841Z,12.85
2023-05-13T04:33:26.689Z,12.86
2023-05-13T04:34:28.912Z,12.92
2023-05-13T04:35:31.120Z,12.92
2023-05-13T04:36:35.378Z,12.94
2023-05-13T04:37:40.376Z,12.90
2023-05-13T04:38:45.872Z,12.94
2023-05-13T04:39:48.949Z,12.97
2023-05-13T04:40:53.200Z,12.97
2023-05-13T04:41:57.346Z,12.98
2023-05-13T04:42:59.943Z,13.04
2023-05-13T04:44:05.576Z,13.07
2023-05-13T04:45:08.753Z,13.11
2023-05-13T04:46:11.983Z,13.13
2023-05-13T04:47:14.311Z,13.18
2023-05-13T04:48:16.638Z,13.23
2023-05-13T04:49:18.717Z,13.26
2023-05-13T04:50:21.692Z,13.27
2023-05-13T04:51:27.583Z,13.30
2023-05-13T04:52:30.562Z,13.31
2023-05-13T04:53:32.794Z,13.31
2023-05-13T04:54:38.742Z,13.34
2023-05-13T04:55:41.863Z,13.38
2023-05-13T04:56:44.476Z,13.45
2023-05-13T04:57:46.999Z,13.46
2023-05-13T04:58:49.229Z,13.48
2023-05-13T04:59:51.412Z,13.50
2023-05-13T05:00:54.334Z,13.49
2023-05-13T05:01:56.773Z,13.54
2023-05-13T05:02:59.042Z,13.61
2023-05-13T05:04:02.958Z,13.66
2023-05-13T05:05:06.154Z,13.68
2023-05-13T05:06:10.290Z,13.75
2023-05-13T05:07:13.329Z,13.73
2023-05-13T05:08:16.484Z,13.78
2023-05-13T05:09:19.953Z,13.82
2023-05-13T05:10:24.046Z,13.86
2023-05-13T05:11:28.669Z,13.90
2023-05-13T05:12:31.734Z,13.95
2023-05-13T05:13:33.968Z,13.96
2023-05-13T05:14:37.585Z,13.98
2023-05-13T05:15:41.317Z,14.01
2023-05-13T05:16:45.159Z,14.06
2023-05-13T05:17:47.772Z,14.10
2023-05-13T05:18:50.539Z,14.14
2023-05-13T05:19:53.136Z,14.16
2023-05-13T05:20:55.559Z,14.19
2023-05-13T05:21:58.276Z,14.29
2023-05-13T05:23:00.841Z,14.32
2023-05-13T05:24:05.697Z,14.36
2023-05-13T05:25:09.485Z,14.42
2023-05-13T05:26:12.806Z,14.42
2023-05-13T05:27:17.812Z,14.45
2023-05-13T05:28:21.080Z,14.46
2023-05-13T05:29:23.689Z,14.49
2023-05-13T05:30:26.216Z,14.52
2023-05-13T05:31:33.072Z,14.53
2023-05-13T05:32:37.890Z,14.53
2023-05-13T05:33:41.768Z,14.59
2023-05-13T05:34:44.268Z,14.63
2023-05-13T05:35:46.572Z,14.68
2023-05-13T05:36:51.598Z,14.73
2023-05-13T05:37:55.472Z,14.79
2023-05-13T05:38:59.434Z,14.87
2023-05-13T05:40:04.824Z,14.87
2023-05-13T05:41:08.953Z,14.91
2023-05-13T05:42:11.358Z,14.93
2023-05-13T05:43:16.676Z,14.94
2023-05-13T05:44:19.026Z,14.96
2023-05-13T05:45:21.214Z,15.01
2023-05-13T05:46:24.262Z,15.05
2023-05-13T05:47:27.374Z,15.05
2023-05-13T05:48:29.671Z,15.07
2023-05-13T05:49:34.382Z,15.12
2023-05-13T05:50:37.350Z,15.14
2023-05-13T05:51:41.327Z,15.17
2023-05-13T05:52:43.725Z,15.22
2023-05-13T05:53:47.517Z,15.26
2023-05-13T05:54:51.744Z,15.30
2023-05-13T05:55:55.697Z,15.33
2023-05-13T05:56:58.552Z,15.39
2023-05-13T05:58:05.791Z,15.43
2023-05-13T05:59:10.407Z,15.45
2023-05-13T06:00:14.541Z,15.51
2023-05-13T06:01:19.780Z,15.53
2023-05-13T06:02:22.462Z,15.58
2023-05-13T06:03:27.299Z,15.63
2023-05-13T06:04:29.882Z,15.59
2023-05-13T06:05:32.123Z,15.55
2023-05-13T06:06:35.057Z,15.55
2023-05-13T06:07:37.498Z,15.61
2023-05-13T06:08:40.646Z,15.68
2023-05-13T06:09:42.989Z,15.71
2023-05-13T06:10:47.277Z,15.78
2023-05-13T06:11:50.074Z,15.84
2023-05-13T06:12:52.175Z,15.89
2023-05-13T06:13:54.282Z,15.92
2023-05-13T06:14:56.797Z,15.91
2023-05-13T06:15:59.144Z,15.92
2023-05-13T06:17:03.720Z,15.99
2023-05-13T06:18:06.328Z,16.01
2023-05-13T06:19:10.616Z,16.07
2023-05-13T06:20:13.518Z,16.12
2023-05-13T06:21:15.713Z,16.14
2023-05-13T06:22:18.025Z,16.18
2023-05-13T06:23:20.379Z,16.23
2023-05-13T06:24:22.761Z,16.26
2023-05-13T06:25:25.014Z,16.27
2023-05-13T06:26:27.325Z,16.26
2023-05-13T06:27:30.655Z,16.31
2023-05-13T06:28:32.952Z,16.33
2023-05-13T06:29:35.277Z,16.39
2023-05-13T06:30:38.150Z,16.40
2023-05-13T06:31:40.692Z,16.40
2023-05-13T06:32:50.343Z,16.39
2023-05-13T06:33:47.530Z,16.46
2023-05-13T06:34:55.131Z,16.53
2023-05-13T06:35:57.634Z,16.58
2023-05-13T06:37:01.607Z,16.63
2023-05-13T06:38:05.453Z,16.65
2023-05-13T06:39:11.262Z,16.69
2023-05-13T06:40:14.670Z,16.72
2023-05-13T06:41:18.742Z,16.77
2023-05-13T06:42:21.179Z,16.79
2023-05-13T06:43:25.429Z,16.83
2023-05-13T06:44:29.484Z,16.87
2023-05-13T06:45:31.921Z,16.90
2023-05-13T06:46:36.876Z,16.91
2023-05-13T06:47:39.334Z,16.94
2023-05-13T06:48:42.971Z,16.98
2023-05-13T06:49:46.453Z,16.99
2023-05-13T06:50:51.074Z,16.97
2023-05-13T06:51:53.457Z,17.03
2023-05-13T06:52:55.669Z,17.02
2023-05-13T06:53:57.885Z,17.05
2023-05-13T06:55:03.084Z,17.09
2023-05-13T06:56:06.202Z,17.10
2023-05-13T06:57:08.484Z,17.16
2023-05-13T06:58:10.892Z,17.21
2023-05-13T06:59:13.095Z,17.22
2023-05-13T07:00:18.116Z,17.22
2023-05-13T07:01:20.382Z,17.24
2023-05-13T07:02:22.725Z,17.20
2023-05-13T07:03:25.011Z,17.12
2023-05-13T07:04:29.044Z,17.16
2023-05-13T07:05:32.398Z,17.20
2023-05-13T07:06:35.350Z,17.24
2023-05-13T07:07:37.802Z,17.28
2023-05-13T07:08:40.306Z,17.32
2023-05-13T07:09:42.478Z,17.37
2023-05-13T07:10:44.858Z,17.44
2023-05-13T07:11:47.322Z,17.50
2023-05-13T07:12:50.708Z,17.54
2023-05-13T07:13:52.984Z,17.58
2023-05-13T07:14:55.269Z,17.58
2023-05-13T07:15:57.364Z,17.62
2023-05-13T07:16:59.820Z,17.63
2023-05-13T07:18:04.312Z,17.58
2023-05-13T07:19:08.015Z,17.60
2023-05-13T07:20:11.231Z,17.61
2023-05-13T07:21:14.688Z,17.62
2023-05-13T07:22:17.730Z,17.65
2023-05-13T07:23:19.692Z,17.70
2023-05-13T07:24:22.936Z,17.76
2023-05-13T07:25:27.091Z,17.78
2023-05-13T07:26:29.452Z,17.82
2023-05-13T07:27:31.554Z,17.85
2023-05-13T07:28:34.821Z,17.87
2023-05-13T07:29:36.878Z,17.88
2023-05-13T07:30:42.271Z,17.96
2023-05-13T07:31:44.646Z,17.97
2023-05-13T07:32:46.768Z,17.96
2023-05-13T07:33:49.911Z,17.97
2023-05-13T07:34:51.973Z,18.00
2023-05-13T07:35:54.167Z,17.99
2023-05-13T07:36:56.571Z,18.02
2023-05-13T07:37:59.669Z,18.08
2023-05-13T07:39:03.254Z,18.06
2023-05-13T07:40:09.078Z,18.09
2023-05-13T07:41:12.435Z,18.16
2023-05-13T07:42:14.764Z,18.19
2023-05-13T07:43:22.774Z,18.26
2023-05-13T07:44:25.322Z,18.22
2023-05-13T07:45:28.503Z,18.15
2023-05-13T07:46:32.182Z,18.24
2023-05-13T07:47:44.662Z,18.31
2023-05-13T07:48:47.694Z,18.38
2023-05-13T07:49:50.738Z,18.43
2023-05-13T07:50:53.380Z,18.49
2023-05-13T07:51:56.077Z,18.49
2023-05-13T07:52:58.405Z,18.52
2023-05-13T07:54:00.686Z,18.56
2023-05-13T07:55:03.360Z,18.55
2023-05-13T07:56:05.948Z,18.48
2023-05-13T07:57:08.282Z,18.53
2023-05-13T07:58:10.483Z,18.57
2023-05-13T07:59:12.791Z,18.54
2023-05-13T08:00:16.054Z,18.59
2023-05-13T08:01:18.746Z,18.63
2023-05-13T08:02:21.503Z,18.63
2023-05-13T08:03:23.925Z,18.70
2023-05-13T08:04:26.259Z,18.75
2023-05-13T08:05:28.469Z,18.70
2023-05-13T08:06:32.991Z,18.74
2023-05-13T08:07:35.992Z,18.74
2023-05-13T08:08:38.267Z,18.81
2023-05-13T08:09:40.263Z,18.84
2023-05-13T08:10:42.765Z,18.85
2023-05-13T08:11:45.186Z,18.89
2023-05-13T08:12:49.376Z,18.93
2023-05-13T08:13:51.804Z,19.01
2023-05-13T08:14:53.926Z,19.02
2023-05-13T08:15:56.155Z,19.02
2023-05-13T08:16:58.564Z,19.08
2023-05-13T08:18:02.329Z,19.02
2023-05-13T08:19:04.707Z,19.07
2023-05-13T08:20:08.391Z,19.14
2023-05-13T08:21:11.330Z,19.16
2023-05-13T08:22:13.540Z,19.15
2023-05-13T08:23:15.771Z,19.18
2023-05-13T08:24:19.022Z,19.20
2023-05-13T08:25:21.490Z,19.26
2023-05-13T08:26:24.378Z,19.26
2023-05-13T08:27:27.676Z,19.30
2023-05-13T08:28:30.509Z,19.38
2023-05-13T08:29:32.911Z,19.41
2023-05-13T08:30:36.286Z,19.48
2023-05-13T08:31:38.790Z,19.50
2023-05-13T08:32:41.975Z,19.41
2023-05-13T08:33:46.210Z,19.33
2023-05-13T08:34:48.604Z,19.27
2023-05-13T08:35:50.925Z,19.33
2023-05-13T08:36:53.531Z,19.28
2023-05-13T08:37:55.726Z,19.24
2023-05-13T08:38:57.952Z,19.30
2023-05-13T08:40:02.784Z,19.35
2023-05-13T08:41:05.946Z,19.43
2023-05-13T08:42:08.380Z,19.50
2023-05-13T08:43:12.856Z,19.53
2023-05-13T08:44:18.355Z,19.57
2023-05-13T08:45:22.499Z,19.53
2023-05-13T08:46:28.023Z,19.58
2023-05-13T08:47:49.436Z,19.66
2023-05-13T08:48:53.096Z,19.69
2023-05-13T08:49:56.169Z,19.77
2023-05-13T08:51:01.333Z,19.87
2023-05-13T08:52:04.444Z,19.90
2023-05-13T08:53:07.315Z,19.98
2023-05-13T08:54:10.868Z,20.06
2023-05-13T08:55:13.714Z,20.08
2023-05-13T08:56:16.584Z,20.10
2023-05-13T08:57:19.202Z,20.09
2023-05-13T08:58:22.437Z,20.14
2023-05-13T08:59:26.411Z,20.23
2023-05-13T09:00:30.131Z,20.34
2023-05-13T09:01:32.670Z,20.44
2023-05-13T09:02:35.020Z,20.51
2023-05-13T09:03:41.821Z,20.58
2023-05-13T09:04:47.682Z,20.66
2023-05-13T09:05:50.515Z,20.79
2023-05-13T09:06:54.896Z,20.79
2023-05-13T09:07:56.997Z,20.87
2023-05-13T09:09:00.110Z,20.94
2023-05-13T09:10:06.699Z,21.00
2023-05-13T09:11:10.109Z,21.01
2023-05-13T09:12:12.381Z,21.00
2023-05-13T09:13:18.717Z,21.11
2023-05-13T09:14:21.170Z,21.22
2023-05-13T09:15:26.023Z,21.23
2023-05-13T09:16:30.103Z,21.21
2023-05-13T09:17:35.371Z,21.25
2023-05-13T09:18:39.394Z,21.34
2023-05-13T09:19:42.297Z,21.48
2023-05-13T09:20:45.544Z,21.54
2023-05-13T09:21:47.992Z,21.56
2023-05-13T09:22:52.336Z,21.59
2023-05-13T09:24:11.575Z,21.64
2023-05-13T09:25:16.305Z,21.68
2023-05-13T09:26:29.703Z,21.59
2023-05-13T09:27:39.949Z,21.65
2023-05-13T09:28:42.579Z,21.65
2023-05-13T09:29:44.737Z,21.51
2023-05-13T09:30:51.586Z,21.55
2023-05-13T09:31:57.522Z,21.61
2023-05-13T09:33:09.406Z,21.69
2023-05-13T09:34:13.268Z,21.59
2023-05-13T09:35:16.631Z,21.65
2023-05-13T09:36:19.211Z,21.72
2023-05-13T09:37:24.325Z,21.77
2023-05-13T09:38:32.318Z,21.85
2023-05-13T09:39:40.639Z,21.89
2023-05-13T09:40:53.649Z,22.00
2023-05-13T09:41:55.931Z,21.99
2023-05-13T09:42:58.860Z,21.95
2023-05-13T09:44:04.600Z,21.91
2023-05-13T09:45:08.152Z,21.83
2023-05-13T09:46:10.776Z,21.82
2023-05-13T09:47:17.203Z,21.93
2023-05-13T09:48:22.642Z,22.05
2023-05-13T09:49:41.560Z,21.86
2023-05-13T09:50:50.671Z,21.77
2023-05-13T09:51:52.996Z,21.83
2023-05-13T09:52:55.627Z,21.94
2023-05-13T09:54:05.645Z,22.01
2023-05-13T09:55:46.165Z,22.11
2023-05-13T09:57:18.696Z,22.21
2023-05-13T09:58:23.694Z,22.16
2023-05-13T09:59:26.166Z,22.23
2023-05-13T10:00:33.169Z,22.23
2023-05-13T10:02:49.225Z,22.27
2023-05-13T10:03:55.572Z,22.18
2023-05-13T10:04:59.443Z,22.24
2023-05-13T10:06:05.584Z,22.34
2023-05-13T10:07:09.563Z,22.44
2023-05-13T10:08:14.948Z,22.52
2023-05-13T10:09:17.774Z,22.38
2023-05-13T10:10:23.578Z,22.31
2023-05-13T10:11:29.051Z,22.14
2023-05-13T10:12:35.775Z,21.94
2023-05-13T10:13:39.496Z,21.94
2023-05-13T10:14:43.824Z,21.91
2023-05-13T10:15:51.553Z,21.66
2023-05-13T10:16:55.650Z,21.63
2023-05-13T10:18:00.323Z,21.47
2023-05-13T10:19:04.237Z,21.62
2023-05-13T10:20:07.914Z,21.77
2023-05-13T10:21:13.118Z,21.84
2023-05-13T10:22:31.203Z,21.70
2023-05-13T10:23:36.780Z,21.75
2023-05-13T10:24:42.310Z,21.85
2023-05-13T10:25:52.405Z,22.02
2023-05-13T10:26:55.771Z,22.07
2023-05-13T10:28:00.436Z,22.32
2023-05-13T10:29:13.459Z,22.32
2023-05-13T10:30:18.256Z,22.44
2023-05-13T10:31:21.107Z,22.58
2023-05-13T10:32:25.897Z,22.70
2023-05-13T10:33:28.981Z,22.83
2023-05-13T10:34:34.361Z,23.02
2023-05-13T10:35:42.681Z,23.19
2023-05-13T10:38:16.053Z,23.30
2023-05-13T10:39:22.142Z,23.20
2023-05-13T10:41:05.002Z,23.17
2023-05-13T10:50:28.071Z,22.69
2023-05-13T10:51:32.046Z,22.37
2023-05-13T10:52:48.267Z,22.42
2023-05-13T10:53:55.171Z,22.56
2023-05-13T10:55:07.091Z,22.54
2023-05-13T10:56:11.449Z,22.44
2023-05-13T10:57:13.724Z,22.38
2023-05-13T10:58:18.882Z,22.40
2023-05-13T10:59:22.218Z,22.36
2023-05-13T11:00:28.800Z,22.31
2023-05-13T11:01:42.020Z,22.27
2023-05-13T11:02:44.499Z,22.46
2023-05-13T11:03:52.959Z,22.56
2023-05-13T11:04:59.879Z,22.62
2023-05-13T11:06:14.374Z,22.93
2023-05-13T11:07:16.965Z,23.13
2023-05-13T11:09:39.708Z,23.60
2023-05-13T11:10:45.674Z,23.55
2023-05-13T11:11:56.007Z,23.75
2023-05-13T11:13:22.194Z,23.97
2023-05-13T11:14:27.597Z,24.13
2023-05-13T11:15:50.878Z,24.25
2023-05-13T11:16:56.256Z,24.17
2023-05-13T11:17:58.985Z,24.43
2023-05-13T11:19:07.966Z,24.60
2023-05-13T11:20:12.288Z,24.69
2023-05-13T11:21:15.891Z,24.66
2023-05-13T11:22:21.411Z,24.67
2023-05-13T11:23:23.695Z,24.71
2023-05-13T11:24:26.208Z,24.89
2023-05-13T11:25:28.430Z,24.89
2023-05-13T11:26:45.967Z,24.91
2023-05-13T11:27:48.129Z,25.02
2023-05-13T11:29:06.498Z,25.09
2023-05-13T11:30:24.580Z,25.10
2023-05-13T11:31:28.589Z,25.26
2023-05-13T11:32:57.009Z,25.50
2023-05-13T11:34:17.885Z,25.73
2023-05-13T11:35:25.506Z,25.89
2023-05-13T11:36:33.653Z,25.87
2023-05-13T11:37:40.123Z,25.29
2023-05-13T11:38:42.827Z,25.15
2023-05-13T11:39:45.286Z,25.16
2023-05-13T11:40:49.770Z,25.40
2023-05-13T11:41:54.477Z,25.55
2023-05-13T11:42:57.929Z,25.72
2023-05-13T11:44:02.784Z,25.84
2023-05-13T11:45:06.816Z,25.76
2023-05-13T11:46:12.985Z,25.90
2023-05-13T11:47:19.109Z,26.15
2023-05-13T11:48:23.449Z,26.40
2023-05-13T11:49:41.078Z,26.58
2023-05-13T11:50:44.036Z,26.78
2023-05-13T11:51:46.166Z,26.87
2023-05-13T11:52:54.150Z,26.90
2023-05-13T11:54:02.853Z,26.79
2023-05-13T11:55:07.124Z,26.37
2023-05-13T11:56:13.961Z,26.35
2023-05-13T11:57:25.680Z,26.57
2023-05-13T11:58:28.253Z,26.57
2023-05-13T11:59:38.672Z,26.60
2023-05-13T12:00:36.054Z,26.62
2023-05-13T12:01:38.455Z,26.67
2023-05-13T12:02:41.055Z,26.74
2023-05-13T12:03:43.885Z,26.70
2023-05-13T12:04:46.081Z,26.67
2023-05-13T12:05:48.707Z,26.74
2023-05-13T12:06:51.145Z,26.36
2023-05-13T12:07:58.952Z,26.19
2023-05-13T12:09:09.147Z,25.94
2023-05-13T12:10:14.083Z,25.57
2023-05-13T12:11:16.663Z,25.43
2023-05-13T12:12:20.829Z,25.63
2023-05-13T12:13:23.767Z,25.89
2023-05-13T12:14:27.762Z,25.98
2023-05-13T12:15:30.580Z,26.18
2023-05-13T12:16:33.572Z,26.41
2023-05-13T12:17:37.075Z,26.57
2023-05-13T12:19:05.133Z,26.42
2023-05-13T12:20:20.065Z,26.40
2023-05-13T12:21:23.143Z,26.65
2023-05-13T12:22:25.571Z,26.60
2023-05-13T12:23:40.900Z,26.78
2023-05-13T12:24:43.617Z,26.83
2023-05-13T12:25:49.886Z,26.83
2023-05-13T12:26:53.312Z,26.55
2023-05-13T12:27:56.895Z,26.24
2023-05-13T12:29:00.210Z,25.84
2023-05-13T12:30:04.275Z,25.35
2023-05-13T12:31:10.599Z,25.13
2023-05-13T12:32:16.027Z,24.93
2023-05-13T12:33:21.858Z,24.83
2023-05-13T12:34:35.281Z,24.70
2023-05-13T12:35:37.523Z,24.71
2023-05-13T12:36:40.515Z,24.65
2023-05-13T12:37:42.898Z,24.64
2023-05-13T12:39:10.913Z,24.69
2023-05-13T12:40:14.491Z,24.75
2023-05-13T12:41:17.619Z,24.75
2023-05-13T12:42:19.921Z,24.80
2023-05-13T12:43:22.741Z,24.79
2023-05-13T12:44:26.119Z,24.78
2023-05-13T12:45:35.106Z,24.78
2023-05-13T12:46:39.121Z,24.67
2023-05-13T12:47:49.785Z,24.69
2023-05-13T12:48:56.690Z,24.72
2023-05-13T12:50:00.405Z,24.47
2023-05-13T12:51:02.730Z,24.48
2023-05-13T12:52:05.681Z,24.48
2023-05-13T12:53:07.906Z,24.48
2023-05-13T12:54:11.495Z,24.34
2023-05-13T12:55:14.030Z,24.25
2023-05-13T12:56:16.943Z,24.36
2023-05-13T12:57:19.964Z,24.20
2023-05-13T12:58:22.362Z,24.17
2023-05-13T12:59:26.483Z,24.30
2023-05-13T13:00:30.904Z,24.44
2023-05-13T13:01:39.390Z,24.55
2023-05-13T13:02:49.560Z,24.65
2023-05-13T13:03:54.537Z,24.72
2023-05-13T13:04:59.006Z,24.81
2023-05-13T13:06:01.555Z,24.87
2023-05-13T13:07:06.218Z,24.93
2023-05-13T13:08:08.675Z,24.99
2023-05-13T13:09:13.223Z,25.08
2023-05-13T13:10:16.746Z,25.34
2023-05-13T13:11:20.172Z,25.64
2023-05-13T13:12:22.951Z,25.89
2023-05-13T13:13:26.384Z,26.21
2023-05-13T13:14:29.012Z,26.49
2023-05-13T13:15:31.522Z,26.60
2023-05-13T13:16:34.370Z,26.61
2023-05-13T13:17:38.540Z,26.62
2023-05-13T13:18:42.420Z,26.55
2023-05-13T13:19:45.174Z,26.51
2023-05-13T13:20:47.727Z,26.77
2023-05-13T13:21:49.912Z,27.10
2023-05-13T13:22:54.299Z,27.30
2023-05-13T13:23:57.235Z,27.30
2023-05-13T13:24:59.513Z,27.35
2023-05-13T13:26:01.854Z,27.39
2023-05-13T13:27:04.313Z,27.45
2023-05-13T13:28:06.630Z,27.52
2023-05-13T13:29:08.941Z,27.52
2023-05-13T13:30:13.984Z,27.54
2023-05-13T13:31:16.315Z,27.61
2023-05-13T13:32:18.454Z,27.88
2023-05-13T13:33:21.668Z,27.97
2023-05-13T13:34:24.052Z,27.97
2023-05-13T13:35:26.282Z,28.01
2023-05-13T13:36:28.470Z,27.89
2023-05-13T13:37:30.725Z,27.90
2023-05-13T13:38:33.901Z,27.99
2023-05-13T13:39:36.432Z,28.21
2023-05-13T13:40:39.211Z,28.25
2023-05-13T13:41:41.437Z,28.25
2023-05-13T13:42:45.146Z,27.85
2023-05-13T13:43:47.904Z,27.37
2023-05-13T13:44:50.401Z,27.05
2023-05-13T13:45:53.705Z,27.01
2023-05-13T13:46:56.323Z,26.85
2023-05-13T13:48:00.238Z,26.82
2023-05-13T13:49:07.776Z,27.08
2023-05-13T13:50:07.384Z,27.38
2023-05-13T13:51:11.353Z,27.64
2023-05-13T13:52:14.641Z,27.97
2023-05-13T13:53:16.874Z,28.35
2023-05-13T13:54:19.288Z,28.81
2023-05-13T13:55:23.340Z,29.22
2023-05-13T13:56:25.477Z,29.66
2023-05-13T13:57:27.734Z,29.88
2023-05-13T13:58:30.221Z,30.08
2023-05-13T13:59:32.168Z,29.96
2023-05-13T14:00:36.267Z,29.34